Time;durP1;ratioP1;P1;durP2;ratioP2;P2;SDS_P1;SDS_P2;PMS_P1;PMS_P2;Temp;Humidity;BMP_temperature;BMP_pressure;BME280_temperature;BME280_humidity;BME280_pressure;Samples;Min_cycle;Max_cycle;Signal;HPM_P1;HPM_P2
2023/09/01 00:02:21;;;;;;;6.45;3.28;;;16.20;99.90;;;;;;5112776;28;20028;-67
2023/09/01 00:04:47;;;;;;;8.60;3.60;;;16.30;99.90;;;;;;5103830;28;20052;-67
2023/09/01 00:07:12;;;;;;;10.60;3.75;;;16.30;99.90;;;;;;5110207;28;20039;-66
2023/09/01 00:09:38;;;;;;;10.30;3.75;;;16.30;99.90;;;;;;5113087;28;20024;-67
2023/09/01 00:12:04;;;;;;;8.52;3.90;;;16.30;99.90;;;;;;5110571;28;20031;-67
2023/09/01 00:14:29;;;;;;;10.60;3.97;;;16.30;99.90;;;;;;5102739;28;20479;-67
2023/09/01 00:16:55;;;;;;;8.82;3.30;;;16.40;99.90;;;;;;5108789;28;20087;-67
2023/09/01 00:19:22;;;;;;;10.25;3.30;;;16.40;99.90;;;;;;5112991;28;20020;-67
2023/09/01 00:21:49;;;;;;;9.10;3.53;;;16.40;99.90;;;;;;5112418;28;20067;-68
2023/09/01 00:24:15;;;;;;;6.90;3.22;;;16.40;99.90;;;;;;5104014;28;20047;-67
2023/09/01 00:26:40;;;;;;;7.63;2.97;;;16.40;99.90;;;;;;5105325;28;20028;-67
2023/09/01 00:29:06;;;;;;;12.07;4.03;;;16.50;99.90;;;;;;5113123;28;20035;-67
2023/09/01 00:31:33;;;;;;;7.93;3.70;;;16.50;99.90;;;;;;5108431;28;20170;-67
2023/09/01 00:33:59;;;;;;;8.80;3.45;;;16.50;99.90;;;;;;5111248;28;20043;-66
2023/09/01 00:36:25;;;;;;;6.90;3.33;;;16.50;99.90;;;;;;5110478;28;20049;-67
2023/09/01 00:38:50;;;;;;;10.05;3.40;;;16.60;99.90;;;;;;5113888;28;20114;-67
2023/09/01 00:41:16;;;;;;;7.93;3.60;;;16.60;99.90;;;;;;5114205;28;20344;-66
2023/09/01 00:43:42;;;;;;;7.05;3.20;;;16.60;99.90;;;;;;5113082;28;20040;-68
2023/09/01 00:46:07;;;;;;;7.35;3.67;;;16.60;99.90;;;;;;5112377;28;20031;-67
2023/09/01 00:48:33;;;;;;;7.93;3.17;;;16.60;99.90;;;;;;5110701;28;20163;-66
2023/09/01 00:50:59;;;;;;;9.70;3.72;;;16.60;99.90;;;;;;5105741;28;20043;-67
2023/09/01 00:53:25;;;;;;;9.60;3.67;;;16.60;99.90;;;;;;5108273;28;20445;-68
2023/09/01 00:55:52;;;;;;;11.40;3.95;;;16.60;99.90;;;;;;5106528;28;20042;-67
2023/09/01 00:58:18;;;;;;;8.80;3.50;;;16.70;99.90;;;;;;5112986;28;20023;-67
2023/09/01 01:00:44;;;;;;;9.45;4.10;;;16.60;99.90;;;;;;5114004;28;20115;-68
2023/09/01 01:03:12;;;;;;;11.98;4.35;;;16.70;99.90;;;;;;5100013;28;20538;-67
2023/09/01 01:06:09;;;;;;;8.13;4.47;;;16.70;99.90;;;;;;5113005;28;20036;-67
2023/09/01 01:08:48;;;;;;;10.20;3.92;;;16.70;99.90;;;;;;5112409;28;20043;-67
2023/09/01 01:11:37;;;;;;;11.13;4.47;;;16.70;99.90;;;;;;5113383;28;20124;-67
2023/09/01 01:14:15;;;;;;;12.52;4.53;;;16.70;99.90;;;;;;5100193;28;20113;-67
2023/09/01 01:16:41;;;;;;;9.48;4.13;;;16.70;99.90;;;;;;5105951;28;20402;-66
2023/09/01 01:19:43;;;;;;;9.82;4.55;;;16.70;99.90;;;;;;5114192;28;20115;-66
2023/09/01 01:22:09;;;;;;;11.90;5.10;;;16.70;99.90;;;;;;5105813;28;20028;-67
2023/09/01 01:24:35;;;;;;;11.65;5.05;;;16.70;99.90;;;;;;5104342;28;20089;-67
2023/09/01 01:27:01;;;;;;;13.60;5.55;;;16.70;99.90;;;;;;5113539;28;20433;-67
2023/09/01 01:29:27;;;;;;;14.60;6.43;;;16.70;99.90;;;;;;5108195;28;20024;-66
2023/09/01 01:31:57;;;;;;;13.00;5.85;;;16.70;99.90;;;;;;5111334;28;20117;-66
2023/09/01 01:34:49;;;;;;;10.50;6.18;;;16.60;99.90;;;;;;5112212;28;20024;-67
2023/09/01 01:37:22;;;;;;;15.18;6.30;;;16.60;99.90;;;;;;5113785;28;20055;-66
2023/09/01 01:39:51;;;;;;;12.75;6.45;;;16.50;99.90;;;;;;5094088;28;20032;-67
2023/09/01 01:42:18;;;;;;;15.15;6.30;;;16.40;99.90;;;;;;5107138;28;20109;-67
2023/09/01 01:44:47;;;;;;;14.73;6.80;;;16.40;99.90;;;;;;5113998;28;20028;-67
2023/09/01 01:47:14;;;;;;;12.85;6.85;;;16.20;99.90;;;;;;5107912;28;20032;-67
2023/09/01 01:49:39;;;;;;;16.00;7.00;;;16.20;99.90;;;;;;5104869;28;20036;-67
2023/09/01 01:52:05;;;;;;;18.60;7.65;;;16.10;99.90;;;;;;5113466;28;20054;-67
2023/09/01 01:54:31;;;;;;;16.48;8.20;;;16.10;99.90;;;;;;5113432;28;20027;-68
2023/09/01 01:56:57;;;;;;;18.05;8.18;;;16.00;99.90;;;;;;5112771;28;20365;-67
2023/09/01 01:59:23;;;;;;;15.43;7.97;;;16.00;99.90;;;;;;5113260;28;20161;-67
2023/09/01 02:01:48;;;;;;;13.98;8.30;;;16.00;99.90;;;;;;5113381;28;20110;-66
2023/09/01 02:04:14;;;;;;;17.00;8.35;;;16.00;99.90;;;;;;5109642;28;20032;-67
2023/09/01 02:06:39;;;;;;;18.40;8.65;;;16.00;99.90;;;;;;5102347;28;20078;-67
2023/09/01 02:09:09;;;;;;;17.65;9.23;;;16.00;99.90;;;;;;5105596;28;20021;-67
2023/09/01 02:11:35;;;;;;;17.67;9.02;;;16.10;99.90;;;;;;5100218;28;20047;-67
2023/09/01 02:14:01;;;;;;;18.15;9.88;;;16.10;99.90;;;;;;5112391;28;20044;-67
2023/09/01 02:16:26;;;;;;;20.58;9.88;;;16.10;99.90;;;;;;5107800;28;20031;-66
2023/09/01 02:18:52;;;;;;;21.88;10.07;;;16.10;99.90;;;;;;5112977;28;20110;-66
2023/09/01 02:21:21;;;;;;;19.02;9.40;;;16.20;99.90;;;;;;5112727;28;20058;-67
2023/09/01 02:23:48;;;;;;;18.33;10.07;;;16.20;99.90;;;;;;5113469;28;20062;-67
2023/09/01 02:26:20;;;;;;;19.50;11.02;;;16.20;99.90;;;;;;5112999;28;20037;-68
2023/09/01 02:28:47;;;;;;;19.23;10.45;;;16.20;99.90;;;;;;5113109;28;20414;-66
2023/09/01 02:31:14;;;;;;;23.35;11.90;;;16.20;99.90;;;;;;5112213;28;20081;-68
2023/09/01 02:33:39;;;;;;;17.38;10.77;;;16.20;99.90;;;;;;5110202;28;20047;-67
2023/09/01 02:36:41;;;;;;;21.52;11.18;;;16.20;99.90;;;;;;5111280;28;20051;-68
2023/09/01 02:39:06;;;;;;;21.73;11.20;;;16.20;99.90;;;;;;5057304;28;20039;-68
2023/09/01 02:41:32;;;;;;;20.95;10.73;;;16.10;99.90;;;;;;5095963;28;20032;-67
2023/09/01 02:43:58;;;;;;;20.00;11.60;;;16.10;99.90;;;;;;5113316;28;20028;-66
2023/09/01 02:46:24;;;;;;;22.60;11.23;;;16.10;99.90;;;;;;5113333;28;20451;-67
2023/09/01 02:48:50;;;;;;;19.80;11.52;;;16.20;99.90;;;;;;5112802;28;20038;-67
2023/09/01 02:51:16;;;;;;;20.88;11.68;;;16.20;99.90;;;;;;5106569;28;20047;-68
2023/09/01 02:53:42;;;;;;;22.75;12.07;;;16.20;99.90;;;;;;5112908;28;20040;-67
2023/09/01 02:56:07;;;;;;;20.48;12.32;;;16.20;99.90;;;;;;5113071;28;20042;-67
2023/09/01 02:58:33;;;;;;;22.95;12.70;;;16.20;99.90;;;;;;5112697;28;20051;-67
2023/09/01 03:01:07;;;;;;;20.98;12.48;;;16.30;99.90;;;;;;5112989;28;20119;-67
2023/09/01 03:03:33;;;;;;;21.17;12.70;;;16.30;99.90;;;;;;5112662;28;20056;-66
2023/09/01 03:05:59;;;;;;;22.55;12.75;;;16.30;99.90;;;;;;5108540;28;20031;-66
2023/09/01 03:08:25;;;;;;;21.63;12.15;;;16.30;99.90;;;;;;5116300;28;20051;-67
2023/09/01 03:10:52;;;;;;;25.70;13.57;;;16.30;99.90;;;;;;5115975;27;20047;-67
2023/09/01 03:13:17;;;;;;;24.17;13.00;;;16.30;99.90;;;;;;5096133;28;20357;-66
2023/09/01 03:15:43;;;;;;;27.27;13.98;;;16.30;99.90;;;;;;5096384;28;20031;-67
2023/09/01 03:18:11;;;;;;;23.35;12.60;;;16.30;99.90;;;;;;5096539;28;20028;-67
2023/09/01 03:20:38;;;;;;;24.42;12.93;;;16.30;99.90;;;;;;5116188;28;20041;-66
2023/09/01 03:23:04;;;;;;;25.90;13.88;;;16.30;99.90;;;;;;5111748;28;20035;-67
2023/09/01 03:25:30;;;;;;;26.33;13.93;;;16.30;99.90;;;;;;5115511;28;20028;-65
2023/09/01 03:27:55;;;;;;;22.95;13.50;;;16.30;99.90;;;;;;5114826;28;20052;-67
2023/09/01 03:30:21;;;;;;;23.98;13.07;;;16.30;99.90;;;;;;5116184;28;20530;-67
2023/09/01 03:32:46;;;;;;;26.30;14.32;;;16.30;99.90;;;;;;5115431;28;20031;-67
2023/09/01 03:35:12;;;;;;;24.30;14.30;;;16.30;99.90;;;;;;5116574;28;20073;-67
2023/09/01 03:37:37;;;;;;;24.30;13.40;;;16.30;99.90;;;;;;5116146;28;20028;-67
2023/09/01 03:40:10;;;;;;;22.02;13.00;;;16.30;99.90;;;;;;5113115;28;20034;-66
2023/09/01 03:42:35;;;;;;;;;;;16.30;99.90;;;;;;5113547;28;20379;-67
2023/09/01 03:45:02;;;;;;;25.48;13.63;;;16.30;99.90;;;;;;5116011;28;19994;-67
2023/09/01 03:47:27;;;;;;;24.83;14.25;;;16.30;99.90;;;;;;5116599;27;20059;-67
2023/09/01 03:49:53;;;;;;;22.88;13.82;;;16.30;99.90;;;;;;5116047;28;20070;-66
2023/09/01 03:52:19;;;;;;;26.90;13.95;;;16.30;99.90;;;;;;5115262;28;20471;-67
2023/09/01 03:54:44;;;;;;;25.63;14.13;;;16.30;99.90;;;;;;5115987;28;20024;-67
2023/09/01 03:57:10;;;;;;;22.83;12.88;;;16.30;99.90;;;;;;5112701;28;20026;-67
2023/09/01 03:59:35;;;;;;;23.13;13.18;;;16.30;99.90;;;;;;5114384;28;20028;-68
2023/09/01 04:02:01;;;;;;;22.38;12.82;;;16.30;99.90;;;;;;5115514;28;20359;-66
2023/09/01 04:04:27;;;;;;;20.15;12.82;;;16.30;99.90;;;;;;5116156;28;20031;-66
2023/09/01 04:06:53;;;;;;;24.65;13.60;;;16.20;99.90;;;;;;5115850;28;20043;-66
2023/09/01 04:09:19;;;;;;;26.25;14.60;;;16.30;99.90;;;;;;5116003;28;20024;-65
2023/09/01 04:11:44;;;;;;;22.80;12.48;;;16.20;99.90;;;;;;5115232;28;20054;-66
2023/09/01 04:14:11;;;;;;;23.10;13.43;;;16.20;99.90;;;;;;5109133;28;20050;-68
2023/09/01 04:16:38;;;;;;;26.67;13.63;;;16.20;99.90;;;;;;5109512;28;20058;-67
2023/09/01 04:19:04;;;;;;;26.48;13.45;;;16.30;99.90;;;;;;5115394;28;20034;-67
2023/09/01 04:21:30;;;;;;;25.10;13.27;;;16.30;99.90;;;;;;5115264;28;20024;-67
2023/09/01 04:23:56;;;;;;;24.02;13.88;;;16.30;99.90;;;;;;5115602;28;20026;-68
2023/09/01 04:26:21;;;;;;;25.73;13.65;;;16.30;99.90;;;;;;5115545;28;20031;-67
2023/09/01 04:28:47;;;;;;;24.75;14.80;;;16.30;99.90;;;;;;5115064;28;20030;-67
2023/09/01 04:31:17;;;;;;;23.23;14.05;;;16.20;99.90;;;;;;5111119;28;20039;-67
2023/09/01 04:33:43;;;;;;;25.70;13.27;;;16.30;99.90;;;;;;5098841;28;20036;-67
2023/09/01 04:36:09;;;;;;;23.30;13.20;;;16.30;99.90;;;;;;5104770;28;20039;-67
2023/09/01 04:38:34;;;;;;;25.10;12.82;;;16.20;99.90;;;;;;5114841;28;20027;-66
2023/09/01 04:41:00;;;;;;;25.05;13.48;;;16.20;99.90;;;;;;5114615;28;20031;-67
2023/09/01 04:43:27;;;;;;;23.42;12.80;;;16.30;99.90;;;;;;5110213;28;20020;-67
2023/09/01 04:45:53;;;;;;;24.20;12.45;;;16.30;99.90;;;;;;5106928;28;20039;-68
2023/09/01 04:48:20;;;;;;;24.02;11.65;;;16.30;99.90;;;;;;5105905;28;20024;-66
2023/09/01 04:50:46;;;;;;;22.25;12.02;;;16.30;99.90;;;;;;5111886;28;20031;-67
2023/09/01 04:53:11;;;;;;;21.27;12.30;;;16.30;99.90;;;;;;5114240;28;20035;-67
2023/09/01 04:55:37;;;;;;;23.90;11.48;;;16.20;99.90;;;;;;5108682;27;20034;-67
2023/09/01 04:58:03;;;;;;;24.70;13.32;;;16.30;99.90;;;;;;5102626;28;20099;-67
2023/09/01 05:00:28;;;;;;;26.05;12.45;;;16.30;99.90;;;;;;5101266;28;20467;-67
2023/09/01 05:02:54;;;;;;;25.10;12.55;;;16.20;99.90;;;;;;5113338;28;20032;-67
2023/09/01 05:05:20;;;;;;;24.88;12.52;;;16.20;99.90;;;;;;5099888;28;20079;-66
2023/09/01 05:07:46;;;;;;;23.20;12.75;;;16.20;99.90;;;;;;5100630;28;20465;-67
2023/09/01 05:10:11;;;;;;;24.48;12.23;;;16.30;99.90;;;;;;5103679;28;20111;-66
2023/09/01 05:12:37;;;;;;;26.65;13.05;;;16.30;99.90;;;;;;5110325;28;20031;-67
2023/09/01 05:15:04;;;;;;;24.05;12.38;;;16.30;99.90;;;;;;5103305;28;20059;-67
2023/09/01 05:17:30;;;;;;;25.40;12.02;;;16.30;99.90;;;;;;5109853;28;20066;-66
2023/09/01 05:19:57;;;;;;;20.98;11.80;;;16.30;99.90;;;;;;5102172;28;20051;-66
2023/09/01 05:22:23;;;;;;;27.35;12.82;;;16.30;99.90;;;;;;5113927;28;20050;-67
2023/09/01 05:24:49;;;;;;;23.58;12.50;;;16.30;99.90;;;;;;5099188;28;20028;-65
2023/09/01 05:27:15;;;;;;;24.95;11.80;;;16.30;99.90;;;;;;5112269;28;20027;-66
2023/09/01 05:29:41;;;;;;;25.55;12.57;;;16.40;99.90;;;;;;5112351;28;20036;-66
2023/09/01 05:32:07;;;;;;;21.98;11.60;;;16.40;99.90;;;;;;5112223;28;20126;-67
2023/09/01 05:34:32;;;;;;;22.10;11.98;;;16.40;99.90;;;;;;5114131;28;20512;-67
2023/09/01 05:36:58;;;;;;;23.13;11.20;;;16.40;99.90;;;;;;5113783;28;20032;-66
2023/09/01 05:39:23;;;;;;;21.95;11.38;;;16.40;99.90;;;;;;5113700;28;20027;-67
2023/09/01 05:41:49;;;;;;;24.92;11.13;;;16.40;99.90;;;;;;5113393;28;20071;-67
2023/09/01 05:44:15;;;;;;;22.88;11.18;;;16.40;99.90;;;;;;5113862;28;20076;-67
2023/09/01 05:46:40;;;;;;;17.77;10.00;;;16.50;99.90;;;;;;5114099;28;20026;-67
2023/09/01 05:49:06;;;;;;;19.95;10.55;;;16.50;99.90;;;;;;5106167;28;20030;-68
2023/09/01 05:51:31;;;;;;;21.73;10.18;;;16.60;99.90;;;;;;5113457;28;20039;-67
2023/09/01 05:53:57;;;;;;;19.27;9.95;;;16.70;99.90;;;;;;5113944;28;20027;-67
2023/09/01 05:56:22;;;;;;;17.38;10.23;;;16.70;99.90;;;;;;5113510;28;20023;-66
2023/09/01 05:58:48;;;;;;;23.92;10.70;;;16.80;99.90;;;;;;5113546;28;20031;-66
2023/09/01 06:01:13;;;;;;;21.02;11.20;;;16.90;99.90;;;;;;5113144;28;20088;-66
2023/09/01 06:03:39;;;;;;;21.10;10.20;;;16.90;99.90;;;;;;5113366;28;20100;-66
2023/09/01 06:06:06;;;;;;;22.45;10.38;;;17.00;99.90;;;;;;5108569;28;20048;-66
2023/09/01 06:08:32;;;;;;;20.45;10.98;;;17.00;99.90;;;;;;5113703;28;20051;-66
2023/09/01 06:11:06;;;;;;;23.25;12.25;;;17.10;99.90;;;;;;5112595;28;20489;-67
2023/09/01 06:13:32;;;;;;;18.23;9.80;;;17.20;99.90;;;;;;5113699;28;20044;-66
2023/09/01 06:15:57;;;;;;;24.30;10.90;;;17.20;99.90;;;;;;5112911;28;20038;-67
2023/09/01 06:18:23;;;;;;;18.70;9.50;;;17.30;99.90;;;;;;5113175;28;20106;-67
2023/09/01 06:20:49;;;;;;;19.13;9.70;;;17.30;99.90;;;;;;5113284;28;20059;-67
2023/09/01 06:23:14;;;;;;;20.38;9.57;;;17.30;99.90;;;;;;5109627;28;20027;-66
2023/09/01 06:25:40;;;;;;;19.98;8.90;;;17.30;99.90;;;;;;5109027;28;20043;-66
2023/09/01 06:28:05;;;;;;;19.02;9.82;;;17.40;99.90;;;;;;5112904;28;20035;-66
2023/09/01 06:30:31;;;;;;;18.15;8.77;;;17.40;99.90;;;;;;5113087;28;20044;-67
2023/09/01 06:32:57;;;;;;;18.95;8.93;;;17.40;99.90;;;;;;5113153;28;20040;-67
2023/09/01 06:35:22;;;;;;;14.63;7.95;;;17.50;99.90;;;;;;5112958;28;20027;-66
2023/09/01 06:37:48;;;;;;;18.80;8.48;;;17.50;99.90;;;;;;5113364;28;20072;-66
2023/09/01 06:40:13;;;;;;;18.02;8.40;;;17.50;99.90;;;;;;5112376;28;20061;-66
2023/09/01 06:42:39;;;;;;;18.83;8.27;;;17.60;99.90;;;;;;5106669;28;20062;-66
2023/09/01 06:45:05;;;;;;;14.50;6.80;;;17.60;99.90;;;;;;5116404;28;20032;-66
2023/09/01 06:47:31;;;;;;;16.42;7.45;;;17.60;99.90;;;;;;5098618;28;20456;-65
2023/09/01 06:49:56;;;;;;;14.98;7.65;;;17.70;99.90;;;;;;5096955;28;20201;-67
2023/09/01 06:52:22;;;;;;;14.90;7.22;;;17.70;99.90;;;;;;5101174;28;20560;-66
2023/09/01 06:54:47;;;;;;;18.63;8.68;;;17.90;99.90;;;;;;5097686;28;20475;-66
2023/09/01 06:57:13;;;;;;;15.48;7.60;;;17.90;99.90;;;;;;5117256;28;20035;-67
2023/09/01 06:59:38;;;;;;;16.63;7.57;;;18.10;99.90;;;;;;5117098;28;20340;-67
2023/09/01 07:02:04;;;;;;;15.88;7.50;;;18.20;99.90;;;;;;5113873;28;20035;-67
2023/09/01 07:04:29;;;;;;;16.55;7.53;;;18.30;99.90;;;;;;5115096;28;20023;-66
2023/09/01 07:07:10;;;;;;;16.25;7.35;;;18.40;99.90;;;;;;5114921;28;20047;-66
2023/09/01 07:09:37;;;;;;;14.80;7.15;;;18.40;99.90;;;;;;5096038;28;20472;-67
2023/09/01 07:12:04;;;;;;;13.15;6.15;;;18.50;99.90;;;;;;5103810;28;20118;-66
2023/09/01 07:14:29;;;;;;;12.20;6.57;;;18.60;99.90;;;;;;5116380;28;20472;-67
2023/09/01 07:16:55;;;;;;;13.57;6.30;;;18.60;99.90;;;;;;5116597;28;20023;-67
2023/09/01 07:19:20;;;;;;;13.23;6.93;;;18.60;99.90;;;;;;5100314;28;20085;-66
2023/09/01 07:21:46;;;;;;;14.43;6.10;;;18.60;99.90;;;;;;5104582;28;20067;-68
2023/09/01 07:24:12;;;;;;;13.95;6.50;;;18.70;99.90;;;;;;5105782;28;20067;-67
2023/09/01 07:26:37;;;;;;;13.45;6.60;;;18.70;99.90;;;;;;5101621;28;20374;-66
2023/09/01 07:29:03;;;;;;;13.63;6.15;;;18.70;99.90;;;;;;5109197;28;20069;-68
2023/09/01 07:31:29;;;;;;;14.63;5.90;;;18.70;99.90;;;;;;5108621;28;20429;-67
2023/09/01 07:33:54;;;;;;;13.70;6.57;;;18.80;99.90;;;;;;5098708;28;20035;-67
2023/09/01 07:36:21;;;;;;;18.55;6.85;;;18.80;99.90;;;;;;5115734;28;20032;-67
2023/09/01 07:38:47;;;;;;;16.63;6.57;;;18.90;99.90;;;;;;5112631;28;20127;-67
2023/09/01 07:41:13;;;;;;;15.02;7.15;;;18.90;99.90;;;;;;5115908;28;20027;-67
2023/09/01 07:43:39;;;;;;;12.60;6.55;;;19.00;99.90;;;;;;5116030;27;20459;-67
2023/09/01 07:46:04;;;;;;;13.95;6.43;;;19.00;99.90;;;;;;5115920;28;20028;-66
2023/09/01 07:48:30;;;;;;;17.50;7.40;;;19.00;99.90;;;;;;5116833;28;20114;-66
2023/09/01 07:50:56;;;;;;;16.23;6.50;;;19.10;99.90;;;;;;5115234;28;20139;-67
2023/09/01 07:53:21;;;;;;;12.48;6.25;;;19.10;99.90;;;;;;5114688;28;20031;-67
2023/09/01 07:55:47;;;;;;;14.65;5.68;;;19.20;99.90;;;;;;5112712;28;20016;-67
2023/09/01 07:58:12;;;;;;;13.65;6.53;;;19.20;99.90;;;;;;5114290;28;20092;-66
2023/09/01 08:00:39;;;;;;;16.17;7.13;;;19.20;99.90;;;;;;5108341;28;20063;-67
2023/09/01 08:03:10;;;;;;;13.45;5.85;;;19.20;99.90;;;;;;5115377;28;20066;-66
2023/09/01 08:05:37;;;;;;;12.90;5.80;;;19.20;99.90;;;;;;5115776;28;20031;-66
2023/09/01 08:08:03;;;;;;;13.57;6.82;;;19.10;99.90;;;;;;5115684;28;20056;-67
2023/09/01 08:10:28;;;;;;;12.20;6.18;;;19.10;99.90;;;;;;5115456;27;20161;-67
2023/09/01 08:12:54;;;;;;;11.65;5.78;;;19.10;99.90;;;;;;5109495;28;20098;-66
2023/09/01 08:15:19;;;;;;;14.45;5.63;;;19.10;99.90;;;;;;5110447;28;20028;-68
2023/09/01 08:17:45;;;;;;;10.95;5.35;;;19.20;99.90;;;;;;5115437;28;20504;-66
2023/09/01 08:20:10;;;;;;;13.27;6.25;;;19.20;99.90;;;;;;5115071;28;20427;-66
2023/09/01 08:22:36;;;;;;;11.63;4.93;;;19.20;99.90;;;;;;5113971;28;20409;-66
2023/09/01 08:25:01;;;;;;;13.02;5.65;;;19.20;99.90;;;;;;5111065;28;20039;-67
2023/09/01 08:27:30;;;;;;;13.38;6.43;;;19.30;99.90;;;;;;5112737;28;20019;-67
2023/09/01 08:29:56;;;;;;;13.85;5.97;;;19.40;99.90;;;;;;5111413;28;20089;-67
2023/09/01 08:32:22;;;;;;;11.70;4.88;;;19.40;99.90;;;;;;5113743;28;20043;-67
2023/09/01 08:34:47;;;;;;;8.23;4.20;;;19.50;99.90;;;;;;5111627;28;20034;-67
2023/09/01 08:37:15;;;;;;;10.25;5.13;;;19.60;99.90;;;;;;5109977;28;20028;-66
2023/09/01 08:39:41;;;;;;;14.20;4.68;;;19.70;99.90;;;;;;5095143;28;20070;-67
2023/09/01 08:42:08;;;;;;;7.40;3.90;;;19.70;99.90;;;;;;5112946;28;20441;-67
2023/09/01 08:44:36;;;;;;;8.93;4.05;;;19.80;99.90;;;;;;5109211;28;20036;-66
2023/09/01 08:47:03;;;;;;;9.82;3.85;;;19.80;99.90;;;;;;5114591;28;20035;-68
2023/09/01 08:49:28;;;;;;;9.25;3.83;;;19.80;99.90;;;;;;5109955;28;20483;-67
2023/09/01 08:51:56;;;;;;;9.68;4.00;;;19.80;99.90;;;;;;5105251;28;20086;-66
2023/09/01 08:54:23;;;;;;;10.60;3.78;;;19.70;99.90;;;;;;5110424;28;20467;-67
2023/09/01 08:56:50;;;;;;;7.82;3.58;;;19.60;99.90;;;;;;5113827;28;20168;-67
2023/09/01 08:59:16;;;;;;;11.35;4.18;;;19.50;99.90;;;;;;5109959;27;20020;-67
2023/09/01 09:01:41;;;;;;;7.63;3.78;;;19.40;99.90;;;;;;5113608;28;20036;-66
2023/09/01 09:04:30;;;;;;;8.45;4.22;;;19.40;99.90;;;;;;5111025;28;20027;-67
2023/09/01 09:07:13;;;;;;;12.63;4.35;;;19.40;99.90;;;;;;5095859;28;20032;-68
2023/09/01 09:09:50;;;;;;;10.65;4.35;;;19.40;99.90;;;;;;5096893;28;20073;-67
2023/09/01 09:12:16;;;;;;;12.90;4.55;;;19.40;99.90;;;;;;5112726;28;20043;-67
2023/09/01 09:14:52;;;;;;;10.23;4.47;;;19.40;99.90;;;;;;5111741;28;20028;-67
2023/09/01 09:17:23;;;;;;;8.70;4.35;;;19.50;99.90;;;;;;5104053;28;20027;-67
2023/09/01 09:19:59;;;;;;;8.98;3.80;;;19.50;99.90;;;;;;5113548;27;20016;-67
2023/09/01 09:22:25;;;;;;;13.48;5.25;;;19.50;99.90;;;;;;5113498;28;20020;-67
2023/09/01 09:24:52;;;;;;;9.00;4.20;;;19.60;99.90;;;;;;5113707;28;20520;-68
2023/09/01 09:27:18;;;;;;;8.20;4.30;;;19.70;99.90;;;;;;5113831;28;20032;-67
2023/09/01 09:29:50;;;;;;;10.55;3.80;;;19.80;99.90;;;;;;5113265;28;20032;-67
2023/09/01 09:32:24;;;;;;;11.45;4.10;;;20.00;99.90;;;;;;5113144;28;20411;-67
2023/09/01 09:35:37;;;;;;;9.43;3.85;;;20.10;99.90;;;;;;5110011;28;20035;-66
2023/09/01 09:38:06;;;;;;;8.95;3.97;;;20.40;99.90;;;;;;5030779;28;20038;-66
2023/09/01 09:40:31;;;;;;;8.60;3.92;;;20.70;99.90;;;;;;5106181;28;20050;-68
2023/09/01 09:42:59;;;;;;;8.30;3.90;;;21.30;99.90;;;;;;5110348;28;20395;-67
2023/09/01 09:45:24;;;;;;;7.63;3.30;;;21.80;99.90;;;;;;5113080;28;20480;-68
2023/09/01 09:47:50;;;;;;;7.45;3.20;;;22.40;99.90;;;;;;5113787;28;20057;-66
2023/09/01 09:50:20;;;;;;;7.10;3.03;;;22.90;99.90;;;;;;5113941;28;20028;-68
2023/09/01 09:52:49;;;;;;;8.73;3.42;;;23.20;99.90;;;;;;5113485;28;20039;-67
2023/09/01 09:55:29;;;;;;;10.10;4.15;;;23.20;99.90;;;;;;5113010;28;20126;-66
2023/09/01 09:58:04;;;;;;;5.70;3.30;;;23.20;99.90;;;;;;5113671;28;20034;-67
2023/09/01 10:00:37;;;;;;;10.48;3.90;;;23.30;99.90;;;;;;5097111;27;20036;-67
2023/09/01 10:03:04;;;;;;;10.48;3.60;;;23.30;99.90;;;;;;5111638;28;20032;-66
2023/09/01 10:05:32;;;;;;;10.10;3.80;;;23.30;99.90;;;;;;5103693;28;20023;-67
2023/09/01 10:08:00;;;;;;;7.10;3.65;;;23.20;99.90;;;;;;5104817;28;20439;-67
2023/09/01 10:10:26;;;;;;;7.82;3.30;;;23.20;99.90;;;;;;5113068;28;20038;-67
2023/09/01 10:12:52;;;;;;;5.90;3.00;;;23.20;99.90;;;;;;5112343;28;20023;-68
2023/09/01 10:15:20;;;;;;;13.93;3.80;;;23.20;99.90;;;;;;5112509;28;20023;-66
2023/09/01 10:17:47;;;;;;;7.50;3.38;;;23.20;99.90;;;;;;5111906;28;20031;-67
2023/09/01 10:20:13;;;;;;;8.68;3.60;;;23.30;99.90;;;;;;5110961;28;20046;-67
2023/09/01 10:22:39;;;;;;;6.85;3.17;;;23.20;99.90;;;;;;5112427;28;20372;-67
2023/09/01 10:25:16;;;;;;;8.70;3.40;;;23.10;99.90;;;;;;5112687;28;20378;-67
2023/09/01 10:28:13;;;;;;;7.85;3.47;;;23.00;99.90;;;;;;5111099;28;20138;-66
2023/09/01 10:30:43;;;;;;;8.32;3.40;;;23.10;99.90;;;;;;5098603;28;20031;-67
2023/09/01 10:33:29;;;;;;;6.82;2.97;;;23.30;99.90;;;;;;5100224;28;20032;-68
2023/09/01 10:35:57;;;;;;;8.57;3.28;;;23.50;99.90;;;;;;5106397;28;20108;-67
2023/09/01 10:38:37;;;;;;;4.85;2.75;;;23.60;99.90;;;;;;5108444;28;20028;-66
2023/09/01 10:41:03;;;;;;;7.88;3.38;;;23.70;99.90;;;;;;5111464;28;20546;-66
2023/09/01 10:43:31;;;;;;;8.98;3.60;;;23.80;99.90;;;;;;5106400;28;20384;-66
2023/09/01 10:46:12;;;;;;;6.72;3.40;;;23.80;99.90;;;;;;5106459;28;20024;-67
2023/09/01 10:48:47;;;;;;;9.95;3.53;;;23.70;99.90;;;;;;5103623;28;20024;-66
2023/09/01 10:51:26;;;;;;;8.25;4.00;;;23.80;99.90;;;;;;5110290;28;20043;-66
2023/09/01 10:53:54;;;;;;;7.07;3.50;;;24.10;99.90;;;;;;5107661;28;20111;-67
2023/09/01 10:56:20;;;;;;;6.00;3.38;;;24.40;99.90;;;;;;5110123;28;20032;-67
2023/09/01 10:58:56;;;;;;;5.78;3.38;;;24.80;99.90;;;;;;5110748;28;20387;-66
2023/09/01 11:01:34;;;;;;;6.30;3.55;;;24.90;99.90;;;;;;5105809;28;20035;-67
2023/09/01 11:04:19;;;;;;;7.43;3.33;;;25.00;99.90;;;;;;5105404;28;20077;-67
2023/09/01 11:06:57;;;;;;;5.75;3.20;;;25.00;99.90;;;;;;5106884;28;20096;-67
2023/09/01 11:09:43;;;;;;;8.27;3.85;;;24.90;99.90;;;;;;5102946;28;20040;-67
2023/09/01 11:12:11;;;;;;;5.63;3.72;;;24.80;99.90;;;;;;5105263;28;20052;-67
2023/09/01 11:14:58;;;;;;;8.75;4.10;;;24.80;99.90;;;;;;5099530;28;20067;-67
2023/09/01 11:17:43;;;;;;;7.78;4.32;;;24.90;99.90;;;;;;5109766;28;20061;-68
2023/09/01 11:20:10;;;;;;;9.38;4.07;;;25.00;99.90;;;;;;5112606;28;20044;-67
2023/09/01 11:22:42;;;;;;;7.22;3.63;;;25.10;99.90;;;;;;5112314;28;20043;-66
2023/09/01 11:25:11;;;;;;;6.93;3.95;;;25.10;99.90;;;;;;5112395;28;20055;-67
2023/09/01 11:27:42;;;;;;;9.15;4.45;;;25.20;99.90;;;;;;5111305;28;20028;-67
2023/09/01 11:30:08;;;;;;;6.82;4.22;;;25.30;99.70;;;;;;5115279;28;20464;-67
2023/09/01 11:32:33;;;;;;;6.88;3.92;;;25.30;99.70;;;;;;5109679;28;20066;-67
2023/09/01 11:34:59;;;;;;;9.57;4.25;;;25.30;99.70;;;;;;5099796;28;20027;-67
2023/09/01 11:37:35;;;;;;;9.13;4.45;;;25.30;99.50;;;;;;5104585;28;20082;-68
2023/09/01 11:40:04;;;;;;;9.00;4.32;;;25.20;99.90;;;;;;5109877;28;20081;-67
2023/09/01 11:42:30;;;;;;;6.57;4.30;;;25.20;99.90;;;;;;5114394;28;20016;-67
2023/09/01 11:44:55;;;;;;;11.10;4.63;;;25.20;99.80;;;;;;5107909;28;20042;-66
2023/09/01 11:47:25;;;;;;;7.97;4.88;;;25.20;99.70;;;;;;5113368;28;20495;-66
2023/09/01 11:49:51;;;;;;;9.43;4.32;;;25.30;99.80;;;;;;5115404;28;20024;-68
2023/09/01 11:52:16;;;;;;;8.73;4.50;;;25.50;99.90;;;;;;5115804;28;20124;-68
2023/09/01 11:54:42;;;;;;;11.20;5.18;;;25.80;99.30;;;;;;5115534;28;20031;-67
2023/09/01 11:57:14;;;;;;;10.02;5.20;;;26.20;99.00;;;;;;5114720;28;20031;-67
2023/09/01 11:59:46;;;;;;;11.52;5.75;;;26.50;98.40;;;;;;5115154;28;20055;-67
2023/09/01 12:02:16;;;;;;;11.10;6.18;;;26.60;98.30;;;;;;5115754;28;20234;-67
2023/09/01 12:04:50;;;;;;;11.50;5.93;;;26.60;98.20;;;;;;5115308;28;20440;-68
2023/09/01 12:07:26;;;;;;;11.30;6.15;;;26.60;98.30;;;;;;5100561;28;20047;-68
2023/09/01 12:09:53;;;;;;;10.68;5.60;;;26.80;98.50;;;;;;5115462;28;20077;-69
2023/09/01 12:12:19;;;;;;;7.72;5.15;;;26.90;98.00;;;;;;5113892;28;20487;-68
2023/09/01 12:14:44;;;;;;;9.02;4.55;;;27.10;98.00;;;;;;5115693;28;20024;-68
2023/09/01 12:17:18;;;;;;;10.95;5.38;;;27.20;97.70;;;;;;5111295;28;20031;-68
2023/09/01 12:19:46;;;;;;;7.40;4.53;;;27.30;97.50;;;;;;5107486;28;20023;-68
2023/09/01 12:22:12;;;;;;;9.48;5.03;;;27.30;97.40;;;;;;5104596;28;20028;-68
2023/09/01 12:24:38;;;;;;;7.80;5.25;;;27.40;97.40;;;;;;5098820;28;20089;-68
2023/09/01 12:27:05;;;;;;;11.25;5.00;;;27.30;97.20;;;;;;5099315;28;20372;-68
2023/09/01 12:29:31;;;;;;;6.20;3.78;;;27.20;97.50;;;;;;5106588;28;20107;-67
2023/09/01 12:31:58;;;;;;;7.70;5.03;;;27.10;97.60;;;;;;5099328;28;20445;-67
2023/09/01 12:34:23;;;;;;;11.57;5.35;;;27.10;97.50;;;;;;5104228;28;20039;-66
2023/09/01 12:36:49;;;;;;;8.38;4.88;;;27.10;97.70;;;;;;5097198;28;20077;-67
2023/09/01 12:39:15;;;;;;;7.82;4.55;;;27.20;97.70;;;;;;5103658;28;20024;-68
2023/09/01 12:41:40;;;;;;;10.02;4.15;;;27.20;97.30;;;;;;5105096;28;20429;-67
2023/09/01 12:44:06;;;;;;;9.50;4.10;;;27.20;97.20;;;;;;5100069;28;20057;-67